• Join FlightAware (Why Join?)
  • Login
  • US Flag 
Rudolph Flight #1: Arrived! 
07:46PM EST


 

Airport Tracker/Info


-or-


 

Live Flight TrackerFlight Track Log ✈ EJA929 ✈ 07-Aug-2013 ✈ KSUS - KAPA

Flight Track Log - Related Links

Times and Time Zones

All times are in EDT time to prevent confusion due to time zone crossing. See the EJA929 flight status page for this flight to view local times or setup timezone preferences in your user account.

Time Position Orientation Groundspeed Altitude Reporting Facility
EDT Latitude Longitude Course Direction KTS MPH feet Rate Location/Type
12:21PM 38.6867 -90.7700 310° West 229 264 3,500  Level Kansas City Center
12:22PM 38.7400 -90.8492 311° West 243 280 6,600 2,820 Climbing Kansas City Center
12:23PM 38.7669 -90.9394 291° West 268 308 9,400 2,460 Climbing Kansas City Center
12:24PM 38.7958 -91.0369 291° West 284 327 11,800 2,340 Climbing Kansas City Center
12:25PM 38.9444 -91.0774 280° West  Level FlightAware Approximate
12:25PM 38.8272 -91.1403 291° West 303 349 14,300  Level Kansas City Center
12:26PM 38.8581 -91.2458 291° West 313 360 16,200 1,620 Climbing Kansas City Center
12:27PM 38.8919 -91.3606 291° West 334 384 17,700 1,560 Climbing Kansas City Center
12:28PM 38.9339 -91.5053 290° West 356 410 19,500 1,560 Climbing Kansas City Center
12:29PM 38.9703 -91.6281 291° West 365 420 21,000 1,500 Climbing Kansas City Center
12:30PM 39.0117 -91.7697 291° West 380 437 22,600 1,620 Climbing Kansas City Center
12:31PM 39.0494 -91.9022 290° West 390 449 24,400 1,740 Climbing Kansas City Center
12:32PM 39.0872 -92.0331 290° West 391 450 26,300 1,800 Climbing Kansas City Center
12:34PM 39.1046 -92.2216 291° West  Level Estimated
12:34PM 39.1606 -92.2878 291° West 382 440 30,000  Level Kansas City Center
12:35PM 39.1975 -92.4150 291° West 381 438 31,900 1,920 Climbing Kansas City Center
12:36PM 39.2414 -92.5708 290° West 385 443 34,000 1,740 Climbing Kansas City Center
12:37PM 39.2767 -92.6961 290° West 389 448 35,600 1,560 Climbing Kansas City Center
12:38PM 39.3136 -92.8261 290° West 391 450 37,300 1,620 Climbing Kansas City Center
12:40PM 39.3500 -92.9600 289° West 393 452 39,000 1,260 Climbing Kansas City Center
12:41PM 39.3875 -93.0917 290° West 394 453 40,000 660 Climbing Kansas City Center
12:42PM 39.4333 -93.2625 289° West 415 478 40,400 480 Climbing Kansas City Center
12:43PM 39.4758 -93.4136 290° West 438 504 41,000 720 Climbing Kansas City Center
12:44PM 39.5167 -93.5642 289° West 446 513 42,000 720 Climbing Kansas City Center
12:45PM 39.5581 -93.7139 290° West 444 511 42,500 480 Climbing Kansas City Center
12:46PM 39.6019 -93.8772 289° West 444 511 43,000 240 Climbing Kansas City Center
12:47PM 39.6481 -94.0478 289° West 450 518 43,000  Level Kansas City Center
12:48PM 39.6872 -94.1928 289° West 447 514 43,000  Level Kansas City Center
12:49PM 39.7267 -94.3411 289° West 453 521 43,000  Level Kansas City Center
12:50PM 39.7731 -94.5142 289° West 455 524 43,000  Level Kansas City Center
12:51PM 39.8117 -94.6636 289° West 456 525 43,000  Level Kansas City Center
12:52PM 39.8575 -94.8375 289° West 457 526 43,000  Level Kansas City Center
12:53PM 39.8956 -94.9861 289° West 455 524 43,000  Level Kansas City Center
12:54PM 39.9406 -95.1592 289° West 455 524 43,000  Level Kansas City Center
12:55PM 39.9778 -95.3083 288° West 454 522 43,000  Level Kansas City Center
12:56PM 40.0219 -95.4839 288° West 456 525 43,000  Level Kansas City Center
12:57PM 40.0600 -95.6322 289° West 454 522 43,000  Level Kansas City Center
12:58PM 40.1028 -95.8086 288° West 456 525 43,000  Level Kansas City Center
12:59PM 40.1419 -95.9675 288° West 452 520 43,000  Level Minneapolis Center
01:00PM 40.1811 -96.1264 288° West 454 522 43,000  Level Minneapolis Center
01:01PM 40.2069 -96.2864 282° West 451 519 43,000  Level Minneapolis Center
01:02PM 40.2175 -96.4508 275° West 450 518 43,000  Level Minneapolis Center
01:03PM 40.2292 -96.6133 275° West 449 517 43,000  Level Minneapolis Center
01:04PM 40.2411 -96.7794 275° West 455 524 43,000  Level Minneapolis Center
01:05PM 40.2544 -96.9769 275° West 453 521 43,000  Level Minneapolis Center
01:06PM 40.2656 -97.1414 275° West 453 521 43,000  Level Minneapolis Center
01:07PM 40.2764 -97.3064 275° West 453 521 43,000  Level Minneapolis Center
01:08PM 40.2864 -97.4683 275° West 453 521 43,000  Level Minneapolis Center
01:09PM 40.2964 -97.6342 275° West 456 525 43,000  Level Minneapolis Center
01:11PM 40.3053 -97.7963 274° West  Level FlightAware Approximate
01:12PM 40.3192 -97.9992 274° West 456 525 43,000  Level Minneapolis Center
01:13PM 40.3264 -98.1325 274° West 457 526 43,000  Level Minneapolis Center
01:14PM 40.3375 -98.3325 274° West 457 526 43,000  Level Minneapolis Center
01:15PM 40.3467 -98.5008 274° West 459 528 43,000  Level Minneapolis Center
01:16PM 40.3553 -98.6694 274° West 460 529 43,000  Level Minneapolis Center
01:17PM 40.3647 -98.8378 274° West 460 529 43,000  Level Minneapolis Center
01:18PM 40.3731 -99.0058 274° West 461 531 43,000  Level Minneapolis Center
01:19PM 40.3819 -99.1728 274° West 458 527 43,000  Level Denver Center
01:20PM 40.3897 -99.3408 274° West 459 528 43,000  Level Denver Center
01:21PM 40.3975 -99.5092 274° West 461 531 43,000  Level Denver Center
01:22PM 40.4064 -99.7086 273° West 456 525 43,000  Level Denver Center
01:23PM 40.4142 -99.8767 274° West 458 527 43,000  Level Denver Center
01:24PM 40.4208 -100.0475 273° West 453 521 43,000  Level Denver Center
01:25PM 40.4267 -100.2067 273° West 454 522 43,000  Level Denver Center
01:26PM 40.4344 -100.3925 273° West 455 524 43,000  Level Denver Center
01:27PM 40.4394 -100.5506 272° West 452 520 43,000  Level Denver Center
01:28PM 40.4456 -100.7094 273° West 453 521 43,000  Level Denver Center
01:29PM 40.4522 -100.8958 273° West 455 524 43,000  Level Denver Center
01:30PM 40.4603 -101.0550 274° West 454 522 43,000  Level Denver Center
01:31PM 40.4678 -101.2422 273° West 458 527 43,000  Level Denver Center
01:32PM 40.4742 -101.4033 273° West 459 528 43,000  Level Denver Center
01:33PM 40.4819 -101.5928 273° West 464 534 43,000  Level Denver Center
01:34PM 40.4883 -101.7544 273° West 464 534 43,000  Level Denver Center
01:35PM 40.4942 -101.9439 272° West 464 534 43,000  Level Denver Center
01:36PM 40.5003 -102.1064 273° West 464 534 43,000 -60 Level Denver Center
01:37PM 40.5039 -102.2678 272° West 462 532 42,900 -840 Descending Denver Center
01:38PM 40.4697 -102.4433 256° West 445 512 41,300 -1,560 Descending Denver Center
01:39PM 40.4417 -102.5928 256° West 441 507 39,700 -1,680 Descending Denver Center
01:40PM 40.4078 -102.7753 256° West 444 511 37,900 -2,280 Descending Denver Center
01:41PM 40.3778 -102.9372 256° West 453 521 35,000 -2,700 Descending Denver Center
01:42PM 40.3458 -103.1072 256° West 475 547 32,400 -2,040 Descending Denver Center
01:44PM 40.3131 -103.2728 255° West 474 545 30,900 -2,040 Descending Denver Center
01:45PM 40.2808 -103.4408 256° West 476 548 28,300 -2,460 Descending Denver Center
01:46PM 40.2492 -103.5997 255° West 460 529 25,900 -2,400 Descending Denver Center
01:47PM 40.2189 -103.7658 257° West 407 468 23,400 -2,040 Descending Denver Center
01:48PM 40.1953 -103.8644 253° West 345 397 21,800 -1,980 Descending Denver Center
01:49PM 40.1367 -103.9925 239° Southwest 332 382 19,400 -2,040 Descending Denver Center
01:50PM 40.0889 -104.0933 238° Southwest 328 377 17,700 -1,200 Descending Denver Center
01:51PM 40.0386 -104.2019 239° Southwest 324 373 17,000 -420 Descending Denver Center
01:52PM 39.9928 -104.3003 239° Southwest 319 367 16,900 -900 Descending Denver Center
01:53PM 39.9461 -104.4008 239° Southwest 323 372 15,200 -1,500 Descending Denver Center
01:54PM 39.8953 -104.5083 238° Southwest 323 372 13,800 -1,500 Descending Denver Center
01:55PM 39.8389 -104.6147 235° Southwest 359 413 12,200 -1,680 Descending Denver Center
01:56PM 39.7814 -104.7325 238° Southwest 378 435 10,100 -1,560 Descending Denver Center
01:57PM 39.7303 -104.8394 238° Southwest 283 326 8,700 -1,320 Descending Denver Center
01:58PM 39.6642 -104.8550 190° South 213 245 7,400 -1,080 Descending Denver Center
01:59PM 39.6208 -104.8533 178° South 148 170 6,500 -780 Descending Denver Center
02:00PM 39.5850 -104.8525 179° South 132 152 5,800 -720 Descending Denver Center
02:02PM 39.5701 -104.8493 174° South  Level Estimated
02:09PM 39.5701 -104.8493 174° South  Level Estimated
02:10PM 39.5701 -104.8493 174° South  Level Estimated